createdAt,value
2022-10-18T00:01:17.088Z,99949.13
2022-10-18T00:03:46.957Z,99943.88
2022-10-18T00:06:15.536Z,99938.22
2022-10-18T00:08:44.001Z,99935.47
2022-10-18T00:11:12.486Z,99946.34
2022-10-18T00:13:40.928Z,99937.38
2022-10-18T00:16:14.058Z,99926.25
2022-10-18T00:18:43.255Z,99927.75
2022-10-18T00:21:15.836Z,99918.69
2022-10-18T00:23:45.295Z,99913.63
2022-10-18T00:26:15.934Z,99924.00
2022-10-18T00:28:46.284Z,99915.22
2022-10-18T00:31:16.967Z,99908.47
2022-10-18T00:33:47.127Z,99922.66
2022-10-18T00:36:17.102Z,99918.13
2022-10-18T00:38:46.291Z,99895.63
2022-10-18T00:41:17.143Z,99869.41
2022-10-18T00:43:57.513Z,99861.41
2022-10-18T00:46:28.101Z,99871.47
2022-10-18T00:48:57.692Z,99870.06
2022-10-18T00:51:31.219Z,99868.56
2022-10-18T00:54:00.042Z,99867.63
2022-10-18T00:56:28.879Z,99863.97
2022-10-18T00:58:57.084Z,99867.03
2022-10-18T01:01:28.369Z,99862.91
2022-10-18T01:03:58.070Z,99863.28
2022-10-18T01:06:29.719Z,99859.78
2022-10-18T01:09:11.294Z,99863.00
2022-10-18T01:11:56.125Z,99851.94
2022-10-18T01:14:39.871Z,99849.34
2022-10-18T01:17:15.923Z,99853.59
2022-10-18T01:20:18.690Z,99855.28
2022-10-18T01:22:55.477Z,99864.97
2022-10-18T01:25:37.994Z,99849.63
2022-10-18T01:28:17.331Z,99868.81
2022-10-18T01:30:55.551Z,99855.91
2022-10-18T01:33:38.941Z,99857.53
2022-10-18T01:36:13.273Z,99854.88
2022-10-18T01:38:44.837Z,99857.31
2022-10-18T01:41:16.133Z,99872.69
2022-10-18T01:43:47.696Z,99858.91
2022-10-18T01:46:22.596Z,99849.44
2022-10-18T01:48:52.808Z,99844.66
2022-10-18T01:51:24.466Z,99833.97
2022-10-18T01:53:53.040Z,99826.97
2022-10-18T01:56:32.503Z,99832.25
2022-10-18T01:59:45.713Z,99838.47
2022-10-18T02:02:26.635Z,99824.03
2022-10-18T02:05:03.528Z,99822.59
2022-10-18T02:07:41.177Z,99831.34
2022-10-18T02:10:12.484Z,99821.84
2022-10-18T02:12:44.787Z,99818.28
2022-10-18T02:15:18.758Z,99822.72
2022-10-18T02:17:48.654Z,99816.59
2022-10-18T02:20:21.140Z,99812.00
2022-10-18T02:22:52.246Z,99820.00
2022-10-18T02:25:25.167Z,99812.22
2022-10-18T02:27:56.613Z,99803.63
2022-10-18T02:30:31.734Z,99807.78
2022-10-18T02:33:07.585Z,99806.78
2022-10-18T02:35:41.869Z,99813.19
2022-10-18T02:38:12.784Z,99818.56
2022-10-18T02:40:41.332Z,99799.97
2022-10-18T02:43:09.824Z,99788.47
2022-10-18T02:45:38.252Z,99792.22
2022-10-18T02:48:08.796Z,99791.09
2022-10-18T02:50:37.168Z,99787.34
2022-10-18T02:53:05.567Z,99781.63
2022-10-18T02:55:33.893Z,99781.44
2022-10-18T02:58:04.133Z,99781.38
2022-10-18T03:00:32.582Z,99764.53
2022-10-18T03:03:00.938Z,99758.09
2022-10-18T03:05:30.744Z,99754.06
2022-10-18T03:07:59.119Z,99756.78
2022-10-18T03:10:27.584Z,99741.63
2022-10-18T03:12:56.042Z,99736.53
2022-10-18T03:15:24.412Z,99736.91
2022-10-18T03:17:52.891Z,99730.69
2022-10-18T03:20:21.307Z,99726.75
2022-10-18T03:22:51.138Z,99735.66
2022-10-18T03:25:19.761Z,99729.41
2022-10-18T03:27:48.153Z,99721.16
2022-10-18T03:30:16.497Z,99719.25
2022-10-18T03:32:44.935Z,99711.63
2022-10-18T03:35:13.318Z,99701.88
2022-10-18T03:37:42.864Z,99701.44
2022-10-18T03:40:13.225Z,99696.22
2022-10-18T03:42:41.714Z,99686.63
2022-10-18T03:45:10.966Z,99679.28
2022-10-18T03:47:39.531Z,99671.28
2022-10-18T03:50:08.211Z,99672.25
2022-10-18T03:52:36.674Z,99673.25
2022-10-18T03:55:05.741Z,99669.50
2022-10-18T03:57:35.515Z,99668.25
2022-10-18T04:00:04.034Z,99660.47
2022-10-18T04:02:41.033Z,99660.81
2022-10-18T04:05:09.523Z,99654.03
2022-10-18T04:07:38.064Z,99641.03
2022-10-18T04:10:07.239Z,99635.50
2022-10-18T04:12:37.080Z,99643.34
2022-10-18T04:15:06.108Z,99643.31
2022-10-18T04:17:34.758Z,99644.44
2022-10-18T04:20:03.147Z,99643.50
2022-10-18T04:22:31.748Z,99630.88
2022-10-18T04:25:00.211Z,99627.16
2022-10-18T04:27:28.754Z,99637.34
2022-10-18T04:29:58.664Z,99636.75
2022-10-18T04:32:29.497Z,99628.75
2022-10-18T04:34:57.979Z,99622.00
2022-10-18T04:37:26.402Z,99620.56
2022-10-18T04:39:54.811Z,99622.25
2022-10-18T04:42:23.306Z,99622.69
2022-10-18T04:44:52.200Z,99620.84
2022-10-18T04:47:21.732Z,99628.88
2022-10-18T04:49:50.124Z,99619.59
2022-10-18T04:52:18.790Z,99618.19
2022-10-18T04:54:47.196Z,99607.31
2022-10-18T04:57:15.565Z,99611.56
2022-10-18T04:59:44.032Z,99612.22
2022-10-18T05:02:12.604Z,99605.34
2022-10-18T05:04:42.353Z,99601.31
2022-10-18T05:07:10.748Z,99594.56
2022-10-18T05:09:39.102Z,99601.66
2022-10-18T05:12:07.778Z,99592.78
2022-10-18T05:14:36.244Z,99599.22
2022-10-18T05:17:04.711Z,99594.84
2022-10-18T05:19:33.192Z,99590.31
2022-10-18T05:22:03.042Z,99596.81
2022-10-18T05:24:31.487Z,99592.78
2022-10-18T05:26:59.947Z,99591.34
2022-10-18T05:29:28.602Z,99589.91
2022-10-18T05:31:57.081Z,99585.44
2022-10-18T05:34:27.392Z,99601.84
2022-10-18T05:36:55.790Z,99598.91
2022-10-18T05:39:25.606Z,99585.34
2022-10-18T05:41:54.082Z,99603.13
2022-10-18T05:44:22.621Z,99600.66
2022-10-18T05:46:51.037Z,99601.66
2022-10-18T05:49:19.593Z,99604.91
2022-10-18T05:51:47.996Z,99601.84
2022-10-18T05:54:16.939Z,99609.28
2022-10-18T05:56:46.693Z,99610.81
2022-10-18T05:59:15.087Z,99605.84
2022-10-18T06:01:44.301Z,99600.09
2022-10-18T06:04:12.902Z,99604.22
2022-10-18T06:06:41.323Z,99599.97
2022-10-18T06:09:09.804Z,99596.88
2022-10-18T06:11:38.449Z,99590.66
2022-10-18T06:14:09.503Z,99588.19
2022-10-18T06:19:11.348Z,99567.16
2022-10-18T06:21:39.676Z,99556.00
2022-10-18T06:24:08.302Z,99542.59
2022-10-18T06:26:36.636Z,99544.78
2022-10-18T06:29:05.130Z,99539.63
2022-10-18T06:31:34.962Z,99538.81
2022-10-18T06:34:03.357Z,99528.81
2022-10-18T06:36:31.981Z,99523.91
2022-10-18T06:39:00.414Z,99517.78
2022-10-18T06:41:28.899Z,99517.00
2022-10-18T06:44:13.737Z,99505.63
2022-10-18T06:46:48.440Z,99495.41
2022-10-18T06:49:19.196Z,99491.28
2022-10-18T06:51:48.152Z,99480.16
2022-10-18T06:54:18.665Z,99461.53
2022-10-18T06:56:47.971Z,99441.84
2022-10-18T06:59:16.680Z,99435.59
2022-10-18T07:01:46.297Z,99439.78
2022-10-18T07:04:14.801Z,99423.97
2022-10-18T07:06:43.188Z,99405.13
2022-10-18T07:09:11.545Z,99383.44
2022-10-18T07:11:40.049Z,99377.53
2022-10-18T07:14:08.836Z,99396.78
2022-10-18T07:16:38.816Z,99404.47
2022-10-18T07:19:08.637Z,99394.63
2022-10-18T07:21:37.166Z,99342.63
2022-10-18T07:24:05.765Z,99376.59
2022-10-18T07:26:35.919Z,99369.72
2022-10-18T07:29:09.001Z,99362.97
2022-10-18T07:31:38.614Z,99336.34
2022-10-18T07:34:09.967Z,99351.31
2022-10-18T07:36:38.450Z,99323.53
2022-10-18T07:39:07.245Z,99322.00
2022-10-18T07:41:35.782Z,99313.50
2022-10-18T07:44:05.316Z,99309.00
2022-10-18T07:46:33.758Z,99304.84
2022-10-18T07:49:02.259Z,99293.53
2022-10-18T07:51:32.985Z,99272.03
2022-10-18T07:54:01.400Z,99257.34
2022-10-18T07:56:29.909Z,99234.44
2022-10-18T07:58:58.479Z,99227.09
2022-10-18T08:01:27.247Z,99198.97
2022-10-18T08:03:55.766Z,99185.28
2022-10-18T08:06:25.139Z,99173.00
2022-10-18T08:08:55.076Z,99160.78
2022-10-18T08:11:25.089Z,99163.63
2022-10-18T08:13:54.771Z,99140.91
2022-10-18T08:16:25.465Z,99145.06
2022-10-18T08:19:01.454Z,99146.31
2022-10-18T08:21:30.032Z,99126.38
2022-10-18T08:23:59.865Z,99126.69
2022-10-18T08:26:28.346Z,99111.16
2022-10-18T08:29:17.497Z,99102.69
2022-10-18T08:31:45.387Z,99086.78
2022-10-18T08:34:17.307Z,99051.41
2022-10-18T08:36:48.082Z,99009.56
2022-10-18T08:39:17.816Z,99000.31
2022-10-18T08:42:09.302Z,98978.03
2022-10-18T08:44:45.298Z,98955.19
2022-10-18T08:47:18.120Z,98947.84
2022-10-18T08:49:50.588Z,98926.44
2022-10-18T08:52:29.531Z,98931.66
2022-10-18T08:55:04.707Z,98916.97
2022-10-18T08:57:34.387Z,98909.94
2022-10-18T09:00:04.425Z,98885.25
2022-10-18T09:02:44.276Z,98871.75
2022-10-18T09:05:24.039Z,98843.94
2022-10-18T09:08:17.023Z,98853.38
2022-10-18T09:13:58.394Z,98856.13
2022-10-18T09:16:35.978Z,98889.34
2022-10-18T09:19:17.328Z,98897.13
2022-10-18T09:21:53.446Z,98869.09
2022-10-18T09:24:28.981Z,98863.91
2022-10-18T09:27:07.920Z,98869.53
2022-10-18T09:29:49.369Z,98872.84
2022-10-18T09:32:34.095Z,98850.91
2022-10-18T09:35:06.432Z,98834.44
2022-10-18T09:37:36.361Z,98859.50
2022-10-18T09:40:18.138Z,98853.91
2022-10-18T09:42:56.672Z,98848.00
2022-10-18T09:45:30.717Z,98841.28
2022-10-18T09:48:08.985Z,98830.84
2022-10-18T09:50:42.505Z,98825.19
2022-10-18T09:53:19.894Z,98819.91
2022-10-18T09:56:00.795Z,98812.56
2022-10-18T09:58:41.258Z,98807.47
2022-10-18T10:01:11.454Z,98796.28
2022-10-18T10:03:40.617Z,98797.75
2022-10-18T10:06:25.454Z,98775.69
2022-10-18T10:09:02.705Z,98773.47
2022-10-18T10:11:35.210Z,98761.91
2022-10-18T10:16:55.997Z,98748.94
2022-10-18T10:19:28.579Z,98737.31
2022-10-18T10:22:10.706Z,98728.59
2022-10-18T10:24:49.537Z,98729.00
2022-10-18T10:27:20.186Z,98725.03
2022-10-18T10:30:01.490Z,98719.66
2022-10-18T10:32:47.196Z,98709.81
2022-10-18T10:38:27.069Z,98688.84
2022-10-18T10:40:56.314Z,98691.91
2022-10-18T10:43:42.817Z,98681.78
2022-10-18T10:46:15.388Z,98682.56
2022-10-18T10:48:52.155Z,98665.16
2022-10-18T10:51:31.764Z,98663.75
2022-10-18T10:54:03.594Z,98661.34
2022-10-18T10:56:34.929Z,98658.84
2022-10-18T10:59:11.601Z,98650.00
2022-10-18T11:01:41.829Z,98646.03
2022-10-18T11:04:29.037Z,98656.28
2022-10-18T11:07:08.301Z,98635.81
2022-10-18T11:09:50.187Z,98642.06
2022-10-18T11:12:25.336Z,98633.03
2022-10-18T11:15:00.855Z,98625.84
2022-10-18T11:17:37.291Z,98623.06
2022-10-18T11:20:28.220Z,98605.63
2022-10-18T11:23:03.256Z,98601.16
2022-10-18T11:26:00.042Z,98603.94
2022-10-18T11:28:40.766Z,98610.09
2022-10-18T11:31:18.393Z,98616.13
2022-10-18T11:34:09.274Z,98614.97
2022-10-18T11:36:56.413Z,98614.06
2022-10-18T11:39:45.081Z,98621.88
2022-10-18T11:42:21.772Z,98622.03
2022-10-18T11:45:00.367Z,98618.13
2022-10-18T11:47:39.563Z,98603.41
2022-10-18T11:50:26.698Z,98615.34
2022-10-18T11:53:04.953Z,98594.25
2022-10-18T11:55:49.966Z,98599.53
2022-10-18T11:58:30.267Z,98602.19
2022-10-18T12:01:04.976Z,98601.78
2022-10-18T12:03:41.707Z,98593.16
2022-10-18T12:06:16.874Z,98601.66
2022-10-18T12:08:50.137Z,98606.66
2022-10-18T12:11:22.589Z,98582.66
2022-10-18T12:13:54.864Z,98590.47
2022-10-18T12:16:49.253Z,98580.88
2022-10-18T12:19:23.625Z,98584.94
2022-10-18T12:21:58.153Z,98586.97
2022-10-18T12:24:30.140Z,98584.69
2022-10-18T12:27:02.002Z,98589.88
2022-10-18T12:29:38.478Z,98579.22
2022-10-18T12:32:10.193Z,98581.88
2022-10-18T12:34:44.134Z,98583.50
2022-10-18T12:37:29.528Z,98587.59
2022-10-18T12:40:13.220Z,98580.25
2022-10-18T12:42:46.600Z,98578.38
2022-10-18T12:45:32.452Z,98590.06
2022-10-18T12:48:02.368Z,98581.88
2022-10-18T12:50:35.017Z,98570.59
2022-10-18T12:53:09.033Z,98581.66
2022-10-18T12:55:39.216Z,98573.69
2022-10-18T12:58:25.781Z,98583.09
2022-10-18T13:00:56.350Z,98573.69
2022-10-18T13:03:54.618Z,98575.94
2022-10-18T13:06:24.007Z,98576.75
2022-10-18T13:09:22.277Z,98584.03
2022-10-18T13:11:52.869Z,98580.66
2022-10-18T13:15:12.734Z,98572.66
2022-10-18T13:17:53.326Z,98576.13
2022-10-18T13:20:28.104Z,98594.16
2022-10-18T13:23:09.890Z,98597.81
2022-10-18T13:25:52.842Z,98590.28
2022-10-18T13:28:28.860Z,98596.34
2022-10-18T13:31:02.906Z,98591.69
2022-10-18T13:33:34.581Z,98586.97
2022-10-18T13:36:05.811Z,98599.69
2022-10-18T13:38:48.630Z,98583.47
2022-10-18T13:41:21.330Z,98597.69
2022-10-18T13:44:13.151Z,98602.84
2022-10-18T13:47:20.312Z,98601.72
2022-10-18T13:50:31.776Z,98591.91
2022-10-18T13:53:45.789Z,98597.63
2022-10-18T13:56:35.637Z,98612.94
2022-10-18T13:59:19.346Z,98622.22
2022-10-18T14:01:58.669Z,98609.63
2022-10-18T14:04:52.531Z,98621.59
2022-10-18T14:07:21.451Z,98616.25
2022-10-18T14:09:52.496Z,98636.88
2022-10-18T14:12:30.301Z,98586.19
2022-10-18T14:15:06.577Z,98635.53
2022-10-18T14:17:41.056Z,98614.63
2022-10-18T14:20:28.631Z,98628.06
2022-10-18T14:23:06.368Z,98623.28
2022-10-18T14:25:36.935Z,98588.97
2022-10-18T14:28:12.590Z,98636.41
2022-10-18T14:30:55.648Z,98625.59
2022-10-18T14:33:35.128Z,98643.25
2022-10-18T14:36:10.358Z,98652.66
2022-10-18T14:38:50.078Z,98642.59
2022-10-18T14:41:23.436Z,98634.06
2022-10-18T14:43:55.030Z,98672.91
2022-10-18T14:46:29.020Z,98643.59
2022-10-18T14:49:02.200Z,98630.50
2022-10-18T14:51:34.634Z,98650.13
2022-10-18T14:54:04.402Z,98641.88
2022-10-18T14:56:38.180Z,98658.47
2022-10-18T14:59:17.873Z,98680.00
2022-10-18T15:01:55.910Z,98670.03
2022-10-18T15:04:31.149Z,98668.44
2022-10-18T15:07:01.326Z,98677.13
2022-10-18T15:09:31.298Z,98677.38
2022-10-18T15:12:00.798Z,98674.28
2022-10-18T15:14:31.969Z,98705.94
2022-10-18T15:17:03.941Z,98705.84
2022-10-18T15:19:35.203Z,98697.84
2022-10-18T15:22:31.180Z,98699.97
2022-10-18T15:25:18.143Z,98718.50
2022-10-18T15:27:48.983Z,98719.03
2022-10-18T15:30:28.136Z,98716.91
2022-10-18T15:32:58.146Z,98730.44
2022-10-18T15:35:29.428Z,98737.50
2022-10-18T15:38:00.313Z,98736.78
2022-10-18T15:40:46.887Z,98752.16
2022-10-18T15:43:35.162Z,98778.44
2022-10-18T15:46:07.304Z,98771.41
2022-10-18T15:48:39.187Z,98755.25
2022-10-18T15:51:08.891Z,98766.22
2022-10-18T15:53:45.387Z,98711.44
2022-10-18T15:56:32.889Z,98744.69
2022-10-18T15:59:04.168Z,98768.00
2022-10-18T16:01:44.979Z,98755.56
2022-10-18T16:04:21.250Z,98762.69
2022-10-18T16:06:49.833Z,98786.31
2022-10-18T16:09:20.424Z,98799.53
2022-10-18T16:11:54.291Z,98775.81
2022-10-18T16:14:26.977Z,98781.69
2022-10-18T16:17:18.747Z,98784.09
2022-10-18T16:19:47.314Z,98794.31
2022-10-18T16:22:15.807Z,98799.06
2022-10-18T16:24:44.246Z,98798.16
2022-10-18T16:27:12.635Z,98806.09
2022-10-18T16:29:41.693Z,98815.63
2022-10-18T16:32:11.668Z,98807.75
2022-10-18T16:34:40.229Z,98816.94
2022-10-18T16:37:08.704Z,98821.63
2022-10-18T16:39:37.264Z,98808.41
2022-10-18T16:42:05.976Z,98825.59
2022-10-18T16:44:34.513Z,98834.31
2022-10-18T16:47:03.194Z,98820.06
2022-10-18T16:49:33.505Z,98849.72
2022-10-18T16:52:02.083Z,98827.56
2022-10-18T16:54:30.557Z,98811.84
2022-10-18T16:56:59.127Z,98846.41
2022-10-18T16:59:29.615Z,98862.88
2022-10-18T17:01:58.901Z,98858.66
2022-10-18T17:04:27.580Z,98862.16
2022-10-18T17:06:59.456Z,98872.56
2022-10-18T17:09:28.126Z,98862.97
2022-10-18T17:11:56.726Z,98886.00
2022-10-18T17:14:25.218Z,98881.84
2022-10-18T17:16:55.911Z,98886.34
2022-10-18T17:19:24.806Z,98894.53
2022-10-18T17:21:53.416Z,98895.44
2022-10-18T17:24:23.481Z,98903.66
2022-10-18T17:26:52.224Z,98894.19
2022-10-18T17:29:20.777Z,98888.09
2022-10-18T17:31:49.400Z,98879.13
2022-10-18T17:34:21.420Z,98882.94
2022-10-18T17:36:50.282Z,98891.84
2022-10-18T17:39:18.824Z,98881.84
2022-10-18T17:41:49.072Z,98891.34
2022-10-18T17:44:18.353Z,98901.44
2022-10-18T17:46:46.921Z,98893.84
2022-10-18T17:49:16.945Z,98892.41
2022-10-18T17:51:46.593Z,98890.22
2022-10-18T17:54:15.581Z,98895.94
2022-10-18T17:56:45.331Z,98898.72
2022-10-18T17:59:16.013Z,98894.34
2022-10-18T18:04:15.093Z,98893.41
2022-10-18T18:06:45.662Z,98917.06
2022-10-18T18:09:17.986Z,98912.91
2022-10-18T18:11:49.560Z,98914.59
2022-10-18T18:14:20.479Z,98908.50
2022-10-18T18:16:50.114Z,98912.19
2022-10-18T18:19:20.518Z,98911.50
2022-10-18T18:21:53.731Z,98905.00
2022-10-18T18:24:25.050Z,98910.59
2022-10-18T18:26:54.496Z,98917.38
2022-10-18T18:29:26.582Z,98911.56
2022-10-18T18:31:56.095Z,98907.34
2022-10-18T18:34:25.496Z,98912.97
2022-10-18T18:36:54.709Z,98918.50
2022-10-18T18:39:25.986Z,98923.50
2022-10-18T18:41:55.151Z,98921.22
2022-10-18T18:44:25.997Z,98925.44
2022-10-18T18:46:54.960Z,98920.56
2022-10-18T18:49:23.485Z,98926.63
2022-10-18T18:51:52.330Z,98941.47
2022-10-18T18:54:22.211Z,98930.06
2022-10-18T18:56:50.936Z,98932.91
2022-10-18T18:59:20.241Z,98928.97
2022-10-18T19:01:50.683Z,98913.38
2022-10-18T19:04:19.608Z,98920.97
2022-10-18T19:06:50.900Z,98922.91
2022-10-18T19:09:22.303Z,98923.34
2022-10-18T19:11:53.578Z,98912.53
2022-10-18T19:14:24.522Z,98916.28
2022-10-18T19:16:57.658Z,98907.97
2022-10-18T19:19:28.712Z,98902.47
2022-10-18T19:21:58.942Z,98906.72
2022-10-18T19:24:30.420Z,98899.66
2022-10-18T19:27:00.942Z,98901.06
2022-10-18T19:29:31.046Z,98929.41
2022-10-18T19:32:02.154Z,98945.91
2022-10-18T19:34:32.254Z,98957.69
2022-10-18T19:37:00.772Z,98955.72
2022-10-18T19:39:31.703Z,98948.75
2022-10-18T19:42:03.343Z,98943.13
2022-10-18T19:44:36.067Z,98936.00
2022-10-18T19:47:07.284Z,98933.09
2022-10-18T19:49:35.733Z,98931.66
2022-10-18T19:52:04.211Z,98933.53
2022-10-18T19:54:32.769Z,98933.28
2022-10-18T19:57:01.203Z,98923.22
2022-10-18T19:59:29.887Z,98931.59
2022-10-18T20:02:00.634Z,98922.09
2022-10-18T20:04:34.333Z,98918.22
2022-10-18T20:07:05.770Z,98919.41
2022-10-18T20:09:34.329Z,98911.88
2022-10-18T20:12:02.860Z,98906.84
2022-10-18T20:14:31.334Z,98910.66
2022-10-18T20:16:59.738Z,98924.41
2022-10-18T20:19:28.314Z,98943.44
2022-10-18T20:21:58.956Z,98928.69
2022-10-18T20:24:27.579Z,98915.38
2022-10-18T20:26:56.109Z,98919.88
2022-10-18T20:29:25.614Z,98924.97
2022-10-18T20:31:55.747Z,98919.34
2022-10-18T20:34:29.822Z,98910.38
2022-10-18T20:36:59.771Z,98901.22
2022-10-18T20:39:28.441Z,98902.38
2022-10-18T20:41:56.887Z,98893.88
2022-10-18T20:44:27.101Z,98893.78
2022-10-18T20:46:55.599Z,98900.91
2022-10-18T20:49:23.997Z,98893.16
2022-10-18T20:51:54.955Z,98894.44
2022-10-18T20:54:25.024Z,98893.13
2022-10-18T20:56:53.558Z,98892.16
2022-10-18T20:59:24.995Z,98893.09
2022-10-18T21:01:53.517Z,98896.78
2022-10-18T21:04:24.266Z,98903.31
2022-10-18T21:06:55.240Z,98900.69
2022-10-18T21:09:25.405Z,98903.31
2022-10-18T21:11:54.860Z,98897.00
2022-10-18T21:14:26.899Z,98894.13
2022-10-18T21:16:58.582Z,98903.13
2022-10-18T21:19:28.434Z,98889.63
2022-10-18T21:21:58.802Z,98897.38
2022-10-18T21:24:30.103Z,98901.50
2022-10-18T21:26:59.220Z,98903.78
2022-10-18T21:29:27.832Z,98901.69
2022-10-18T21:31:59.694Z,98894.53
2022-10-18T21:34:30.742Z,98879.59
2022-10-18T21:36:59.525Z,98880.06
2022-10-18T21:39:30.224Z,98882.88
2022-10-18T21:41:58.944Z,98875.94
2022-10-18T21:44:27.727Z,98882.22
2022-10-18T21:46:57.060Z,98880.47
2022-10-18T21:49:26.407Z,98887.91
2022-10-18T21:51:54.835Z,98882.41
2022-10-18T21:54:23.204Z,98882.78
2022-10-18T21:56:53.045Z,98880.13
2022-10-18T21:59:21.641Z,98889.41
2022-10-18T22:01:50.024Z,98882.34
2022-10-18T22:04:21.769Z,98875.09
2022-10-18T22:06:50.944Z,98882.09
2022-10-18T22:09:19.627Z,98875.72
2022-10-18T22:11:50.827Z,98878.22
2022-10-18T22:14:21.037Z,98868.34
2022-10-18T22:16:52.451Z,98870.47
2022-10-18T22:19:21.661Z,98877.13
2022-10-18T22:21:50.437Z,98878.75
2022-10-18T22:24:19.088Z,98870.31
2022-10-18T22:26:47.948Z,98869.69
2022-10-18T22:29:17.037Z,98860.03
2022-10-18T22:31:47.394Z,98854.38
2022-10-18T22:34:16.558Z,98845.31
2022-10-18T22:36:44.609Z,98853.84
2022-10-18T22:39:14.499Z,98848.56
2022-10-18T22:41:43.243Z,98847.56
2022-10-18T22:44:12.511Z,98840.81
2022-10-18T22:46:40.657Z,98839.78
2022-10-18T22:49:10.178Z,98831.34
2022-10-18T22:51:38.325Z,98827.16
2022-10-18T22:54:06.414Z,98833.69
2022-10-18T22:56:35.656Z,98835.94
2022-10-18T22:59:03.762Z,98844.94
2022-10-18T23:01:31.807Z,98847.97
2022-10-18T23:04:00.644Z,98845.91
2022-10-18T23:06:30.920Z,98835.78
2022-10-18T23:08:59.947Z,98822.84
2022-10-18T23:11:28.944Z,98814.16
2022-10-18T23:13:57.036Z,98811.38
2022-10-18T23:16:25.361Z,98801.94
2022-10-18T23:18:54.543Z,98793.53
2022-10-18T23:21:24.485Z,98794.00
2022-10-18T23:23:54.601Z,98793.44
2022-10-18T23:26:23.597Z,98801.50
2022-10-18T23:28:52.796Z,98788.28
2022-10-18T23:31:21.712Z,98775.63
2022-10-18T23:33:50.897Z,98777.47
2022-10-18T23:36:19.155Z,98761.25
2022-10-18T23:38:50.606Z,98758.56
2022-10-18T23:41:20.463Z,98759.47
2022-10-18T23:43:48.747Z,98766.31
2022-10-18T23:46:17.490Z,98756.25
2022-10-18T23:48:45.972Z,98749.84
2022-10-18T23:51:14.270Z,98750.03
2022-10-18T23:53:42.639Z,98747.41
2022-10-18T23:56:11.718Z,98754.91
2022-10-18T23:58:41.349Z,98737.53
